Campo de Criptana, Spain
Current Conditions -  °F | °C
As of 11:00 PM on Thursday 27 Nov 2014 (Local Time) from LEAO Reporting Station
Few Clouds Few Clouds  
Wind Chill: 50°   Ceiling: Unl
Heat Index: 50°   Visibility: 6mi
Dew Point: 43°   Wind: 10mph
Humidity: 76%   Direction: 180°S
Pressure: 29.35"   Gusts: NA
Location:  39.4°N, 3.12°W
Report Text: LEAO 272200Z 18009KT 150V230 9999 FEW045 10/06 Q0994
Loading
Personal Weather Stations






























Interactive Weather Map New forecast layout! Learn more

10-Day Weather Forecast

Advertisements
Track Severe Weather on mobile